sensor_id;sensor_type;location;lat;lon;timestamp;temperature;humidity
63219;DHT22;49320;52.512;13.448;2023-08-31T00:00:42;19.90;68.10
63219;DHT22;49320;52.512;13.448;2023-08-31T00:03:09;20.00;68.10
63219;DHT22;49320;52.512;13.448;2023-08-31T00:05:41;20.00;68.10
63219;DHT22;49320;52.512;13.448;2023-08-31T00:10:37;20.00;67.40
63219;DHT22;49320;52.512;13.448;2023-08-31T00:13:05;20.00;68.00
63219;DHT22;49320;52.512;13.448;2023-08-31T00:15:36;20.10;68.10
63219;DHT22;49320;52.512;13.448;2023-08-31T00:18:03;20.00;67.30
63219;DHT22;49320;52.512;13.448;2023-08-31T00:20:31;20.10;68.10
63219;DHT22;49320;52.512;13.448;2023-08-31T00:23:00;20.10;68.10
63219;DHT22;49320;52.512;13.448;2023-08-31T00:25:27;20.10;68.00
63219;DHT22;49320;52.512;13.448;2023-08-31T00:27:56;20.10;67.90
63219;DHT22;49320;52.512;13.448;2023-08-31T00:30:24;20.10;68.00
63219;DHT22;49320;52.512;13.448;2023-08-31T00:32:56;20.10;68.00
63219;DHT22;49320;52.512;13.448;2023-08-31T00:35:26;20.10;68.00
63219;DHT22;49320;52.512;13.448;2023-08-31T00:37:54;20.10;68.00
63219;DHT22;49320;52.512;13.448;2023-08-31T00:40:26;20.10;68.10
63219;DHT22;49320;52.512;13.448;2023-08-31T00:42:53;20.10;67.40
63219;DHT22;49320;52.512;13.448;2023-08-31T00:45:20;20.10;68.00
63219;DHT22;49320;52.512;13.448;2023-08-31T00:47:48;20.00;68.00
63219;DHT22;49320;52.512;13.448;2023-08-31T00:50:16;20.00;67.90
63219;DHT22;49320;52.512;13.448;2023-08-31T00:52:43;20.00;68.00
63219;DHT22;49320;52.512;13.448;2023-08-31T00:55:14;20.00;68.00
63219;DHT22;49320;52.512;13.448;2023-08-31T00:57:44;20.00;68.10
63219;DHT22;49320;52.512;13.448;2023-08-31T01:00:12;20.00;68.70
63219;DHT22;49320;52.512;13.448;2023-08-31T01:02:59;20.00;68.10
63219;DHT22;49320;52.512;13.448;2023-08-31T01:11:09;19.90;68.30
63219;DHT22;49320;52.512;13.448;2023-08-31T01:13:57;19.90;68.10
63219;DHT22;49320;52.512;13.448;2023-08-31T01:16:32;19.90;67.70
63219;DHT22;49320;52.512;13.448;2023-08-31T01:19:04;19.90;68.40
63219;DHT22;49320;52.512;13.448;2023-08-31T01:21:50;19.90;68.50
63219;DHT22;49320;52.512;13.448;2023-08-31T01:24:22;19.80;68.60
63219;DHT22;49320;52.512;13.448;2023-08-31T01:26:51;19.80;68.60
63219;DHT22;49320;52.512;13.448;2023-08-31T01:29:18;19.70;68.60
63219;DHT22;49320;52.512;13.448;2023-08-31T01:31:45;19.70;68.70
63219;DHT22;49320;52.512;13.448;2023-08-31T01:34:12;19.70;68.80
63219;DHT22;49320;52.512;13.448;2023-08-31T01:36:44;19.70;69.00
63219;DHT22;49320;52.512;13.448;2023-08-31T01:39:37;19.70;69.50
63219;DHT22;49320;52.512;13.448;2023-08-31T01:42:11;19.60;69.40
63219;DHT22;49320;52.512;13.448;2023-08-31T01:44:42;19.60;69.50
63219;DHT22;49320;52.512;13.448;2023-08-31T01:47:12;19.50;69.30
63219;DHT22;49320;52.512;13.448;2023-08-31T01:49:40;19.50;69.50
63219;DHT22;49320;52.512;13.448;2023-08-31T01:52:07;19.50;69.40
63219;DHT22;49320;52.512;13.448;2023-08-31T01:54:34;19.40;69.60
63219;DHT22;49320;52.512;13.448;2023-08-31T01:57:01;19.40;69.90
63219;DHT22;49320;52.512;13.448;2023-08-31T02:01:56;19.30;69.30
63219;DHT22;49320;52.512;13.448;2023-08-31T02:04:24;19.20;70.00
63219;DHT22;49320;52.512;13.448;2023-08-31T02:06:51;19.20;70.10
63219;DHT22;49320;52.512;13.448;2023-08-31T02:09:18;19.00;70.10
63219;DHT22;49320;52.512;13.448;2023-08-31T02:14:14;19.00;70.10
63219;DHT22;49320;52.512;13.448;2023-08-31T02:16:40;19.00;70.60
63219;DHT22;49320;52.512;13.448;2023-08-31T02:24:02;18.90;71.10
63219;DHT22;49320;52.512;13.448;2023-08-31T02:26:29;18.90;71.60
63219;DHT22;49320;52.512;13.448;2023-08-31T02:28:56;18.80;71.70
63219;DHT22;49320;52.512;13.448;2023-08-31T02:31:23;18.80;71.60
63219;DHT22;49320;52.512;13.448;2023-08-31T02:33:50;18.70;71.50
63219;DHT22;49320;52.512;13.448;2023-08-31T02:36:17;18.60;72.00
63219;DHT22;49320;52.512;13.448;2023-08-31T02:38:44;18.60;71.40
63219;DHT22;49320;52.512;13.448;2023-08-31T02:43:38;18.50;70.90
63219;DHT22;49320;52.512;13.448;2023-08-31T02:46:06;18.50;71.20
63219;DHT22;49320;52.512;13.448;2023-08-31T02:48:33;18.40;71.50
63219;DHT22;49320;52.512;13.448;2023-08-31T02:51:00;18.40;71.80
63219;DHT22;49320;52.512;13.448;2023-08-31T02:53:30;18.40;71.80
63219;DHT22;49320;52.512;13.448;2023-08-31T02:55:57;18.30;72.10
63219;DHT22;49320;52.512;13.448;2023-08-31T02:58:24;18.30;72.10
63219;DHT22;49320;52.512;13.448;2023-08-31T03:00:51;18.30;72.50
63219;DHT22;49320;52.512;13.448;2023-08-31T03:03:19;18.20;72.50
63219;DHT22;49320;52.512;13.448;2023-08-31T03:05:46;18.20;72.70
63219;DHT22;49320;52.512;13.448;2023-08-31T03:08:13;18.20;73.10
63219;DHT22;49320;52.512;13.448;2023-08-31T03:10:40;18.10;73.10
63219;DHT22;49320;52.512;13.448;2023-08-31T03:13:07;18.20;73.50
63219;DHT22;49320;52.512;13.448;2023-08-31T03:18:01;18.20;73.00
63219;DHT22;49320;52.512;13.448;2023-08-31T03:20:29;18.20;73.90
63219;DHT22;49320;52.512;13.448;2023-08-31T03:22:56;18.20;73.90
63219;DHT22;49320;52.512;13.448;2023-08-31T03:25:23;18.20;73.90
63219;DHT22;49320;52.512;13.448;2023-08-31T03:27:51;18.20;74.00
63219;DHT22;49320;52.512;13.448;2023-08-31T03:30:17;18.20;74.20
63219;DHT22;49320;52.512;13.448;2023-08-31T03:32:44;18.20;74.30
63219;DHT22;49320;52.512;13.448;2023-08-31T03:35:11;18.20;74.20
63219;DHT22;49320;52.512;13.448;2023-08-31T03:37:38;18.30;74.40
63219;DHT22;49320;52.512;13.448;2023-08-31T03:40:05;18.20;74.30
63219;DHT22;49320;52.512;13.448;2023-08-31T03:42:34;18.20;74.50
63219;DHT22;49320;52.512;13.448;2023-08-31T03:45:01;18.20;74.50
63219;DHT22;49320;52.512;13.448;2023-08-31T03:47:30;16.90;73.60
63219;DHT22;49320;52.512;13.448;2023-08-31T03:49:57;18.20;74.20
63219;DHT22;49320;52.512;13.448;2023-08-31T03:52:24;18.20;74.30
63219;DHT22;49320;52.512;13.448;2023-08-31T03:54:51;18.20;74.60
63219;DHT22;49320;52.512;13.448;2023-08-31T03:57:19;18.20;74.70
63219;DHT22;49320;52.512;13.448;2023-08-31T03:59:46;18.20;74.70
63219;DHT22;49320;52.512;13.448;2023-08-31T04:02:13;18.20;74.80
63219;DHT22;49320;52.512;13.448;2023-08-31T04:04:40;18.20;74.50
63219;DHT22;49320;52.512;13.448;2023-08-31T04:07:07;18.30;74.60
63219;DHT22;49320;52.512;13.448;2023-08-31T04:09:34;18.30;74.80
63219;DHT22;49320;52.512;13.448;2023-08-31T04:12:01;18.20;74.80
63219;DHT22;49320;52.512;13.448;2023-08-31T04:14:28;18.30;75.20
63219;DHT22;49320;52.512;13.448;2023-08-31T04:16:55;18.30;75.30
63219;DHT22;49320;52.512;13.448;2023-08-31T04:19:22;18.30;75.30
63219;DHT22;49320;52.512;13.448;2023-08-31T04:21:49;18.30;75.40
63219;DHT22;49320;52.512;13.448;2023-08-31T04:24:16;18.20;75.60
63219;DHT22;49320;52.512;13.448;2023-08-31T04:26:43;18.20;75.70
63219;DHT22;49320;52.512;13.448;2023-08-31T04:29:11;18.20;76.00
63219;DHT22;49320;52.512;13.448;2023-08-31T04:31:38;18.20;76.30
63219;DHT22;49320;52.512;13.448;2023-08-31T04:34:05;18.10;76.30
63219;DHT22;49320;52.512;13.448;2023-08-31T04:36:33;18.10;76.50
63219;DHT22;49320;52.512;13.448;2023-08-31T04:39:00;18.10;76.50
63219;DHT22;49320;52.512;13.448;2023-08-31T04:41:27;18.10;76.90
63219;DHT22;49320;52.512;13.448;2023-08-31T04:43:54;18.10;77.40
63219;DHT22;49320;52.512;13.448;2023-08-31T04:46:21;18.10;77.70
63219;DHT22;49320;52.512;13.448;2023-08-31T04:48:48;18.00;77.70
63219;DHT22;49320;52.512;13.448;2023-08-31T04:51:31;18.10;78.00
63219;DHT22;49320;52.512;13.448;2023-08-31T04:56:33;18.10;77.50
63219;DHT22;49320;52.512;13.448;2023-08-31T04:59:01;18.00;79.20
63219;DHT22;49320;52.512;13.448;2023-08-31T05:01:29;18.00;78.40
63219;DHT22;49320;52.512;13.448;2023-08-31T05:03:56;18.00;78.60
63219;DHT22;49320;52.512;13.448;2023-08-31T05:06:24;18.00;78.80
63219;DHT22;49320;52.512;13.448;2023-08-31T05:08:51;18.10;79.00
63219;DHT22;49320;52.512;13.448;2023-08-31T05:11:17;18.00;79.30
63219;DHT22;49320;52.512;13.448;2023-08-31T05:13:45;18.00;79.20
63219;DHT22;49320;52.512;13.448;2023-08-31T05:16:12;18.10;79.30
63219;DHT22;49320;52.512;13.448;2023-08-31T05:18:38;18.10;79.60
63219;DHT22;49320;52.512;13.448;2023-08-31T05:21:06;18.10;79.70
63219;DHT22;49320;52.512;13.448;2023-08-31T05:23:33;18.10;79.80
63219;DHT22;49320;52.512;13.448;2023-08-31T05:26:00;18.20;79.90
63219;DHT22;49320;52.512;13.448;2023-08-31T05:28:35;18.20;80.10
63219;DHT22;49320;52.512;13.448;2023-08-31T05:31:03;18.30;80.40
63219;DHT22;49320;52.512;13.448;2023-08-31T05:33:30;18.30;80.50
63219;DHT22;49320;52.512;13.448;2023-08-31T05:36:01;18.30;80.40
63219;DHT22;49320;52.512;13.448;2023-08-31T05:38:32;18.40;80.40
63219;DHT22;49320;52.512;13.448;2023-08-31T05:41:08;18.40;80.00
63219;DHT22;49320;52.512;13.448;2023-08-31T05:43:36;18.50;80.70
63219;DHT22;49320;52.512;13.448;2023-08-31T05:46:07;18.50;79.60
63219;DHT22;49320;52.512;13.448;2023-08-31T05:48:35;18.50;79.80
63219;DHT22;49320;52.512;13.448;2023-08-31T05:51:03;18.50;79.70
63219;DHT22;49320;52.512;13.448;2023-08-31T05:55:58;18.50;78.90
63219;DHT22;49320;52.512;13.448;2023-08-31T05:58:34;18.50;79.50
63219;DHT22;49320;52.512;13.448;2023-08-31T06:01:05;18.50;79.20
63219;DHT22;49320;52.512;13.448;2023-08-31T06:03:32;18.50;79.60
63219;DHT22;49320;52.512;13.448;2023-08-31T06:06:00;18.50;79.40
63219;DHT22;49320;52.512;13.448;2023-08-31T06:08:26;18.50;79.40
63219;DHT22;49320;52.512;13.448;2023-08-31T06:10:53;18.60;79.40
63219;DHT22;49320;52.512;13.448;2023-08-31T06:13:20;18.50;79.60
63219;DHT22;49320;52.512;13.448;2023-08-31T06:15:47;18.60;79.50
63219;DHT22;49320;52.512;13.448;2023-08-31T06:18:14;18.50;79.30
63219;DHT22;49320;52.512;13.448;2023-08-31T06:20:41;18.60;79.30
63219;DHT22;49320;52.512;13.448;2023-08-31T06:23:10;18.60;79.30
63219;DHT22;49320;52.512;13.448;2023-08-31T06:25:38;18.70;79.70
63219;DHT22;49320;52.512;13.448;2023-08-31T06:28:05;18.70;79.00
63219;DHT22;49320;52.512;13.448;2023-08-31T06:30:35;18.70;78.90
63219;DHT22;49320;52.512;13.448;2023-08-31T06:33:02;18.70;79.10
63219;DHT22;49320;52.512;13.448;2023-08-31T06:35:31;18.70;79.30
63219;DHT22;49320;52.512;13.448;2023-08-31T06:37:58;18.80;79.20
63219;DHT22;49320;52.512;13.448;2023-08-31T06:40:25;18.70;78.00
63219;DHT22;49320;52.512;13.448;2023-08-31T06:42:58;18.80;78.60
63219;DHT22;49320;52.512;13.448;2023-08-31T06:45:24;18.80;78.40
63219;DHT22;49320;52.512;13.448;2023-08-31T06:47:51;18.80;78.40
63219;DHT22;49320;52.512;13.448;2023-08-31T06:50:18;18.80;78.00
63219;DHT22;49320;52.512;13.448;2023-08-31T06:52:45;18.80;78.30
63219;DHT22;49320;52.512;13.448;2023-08-31T06:55:13;18.80;78.40
63219;DHT22;49320;52.512;13.448;2023-08-31T07:00:08;19.00;77.80
63219;DHT22;49320;52.512;13.448;2023-08-31T07:02:41;19.00;78.00
63219;DHT22;49320;52.512;13.448;2023-08-31T07:05:10;19.10;77.80
63219;DHT22;49320;52.512;13.448;2023-08-31T07:07:37;19.10;77.50
63219;DHT22;49320;52.512;13.448;2023-08-31T07:10:05;19.20;76.90
63219;DHT22;49320;52.512;13.448;2023-08-31T07:12:32;19.20;76.60
63219;DHT22;49320;52.512;13.448;2023-08-31T07:14:59;19.20;76.30
63219;DHT22;49320;52.512;13.448;2023-08-31T07:17:26;19.10;76.40
63219;DHT22;49320;52.512;13.448;2023-08-31T07:19:52;19.20;76.40
63219;DHT22;49320;52.512;13.448;2023-08-31T07:22:19;19.10;75.50
63219;DHT22;49320;52.512;13.448;2023-08-31T07:24:46;19.70;76.30
63219;DHT22;49320;52.512;13.448;2023-08-31T07:27:13;19.20;75.80
63219;DHT22;49320;52.512;13.448;2023-08-31T07:29:39;19.20;75.80
63219;DHT22;49320;52.512;13.448;2023-08-31T07:32:07;19.20;75.60
63219;DHT22;49320;52.512;13.448;2023-08-31T07:34:34;19.20;75.20
63219;DHT22;49320;52.512;13.448;2023-08-31T07:37:00;19.20;75.00
63219;DHT22;49320;52.512;13.448;2023-08-31T07:39:28;19.20;74.30
63219;DHT22;49320;52.512;13.448;2023-08-31T07:41:55;19.20;74.90
63219;DHT22;49320;52.512;13.448;2023-08-31T07:44:21;19.30;74.60
63219;DHT22;49320;52.512;13.448;2023-08-31T07:46:48;19.30;74.20
63219;DHT22;49320;52.512;13.448;2023-08-31T07:49:15;19.30;74.20
63219;DHT22;49320;52.512;13.448;2023-08-31T07:51:42;19.40;74.30
63219;DHT22;49320;52.512;13.448;2023-08-31T07:54:09;19.40;74.30
63219;DHT22;49320;52.512;13.448;2023-08-31T07:56:36;19.50;74.20
63219;DHT22;49320;52.512;13.448;2023-08-31T07:59:03;19.50;73.90
63219;DHT22;49320;52.512;13.448;2023-08-31T08:01:30;19.60;73.60
63219;DHT22;49320;52.512;13.448;2023-08-31T08:03:57;19.60;73.40
63219;DHT22;49320;52.512;13.448;2023-08-31T08:06:24;19.60;73.10
63219;DHT22;49320;52.512;13.448;2023-08-31T08:08:50;19.60;72.70
63219;DHT22;49320;52.512;13.448;2023-08-31T08:11:17;19.70;72.20
63219;DHT22;49320;52.512;13.448;2023-08-31T08:13:44;19.70;71.90
63219;DHT22;49320;52.512;13.448;2023-08-31T08:16:11;19.70;71.60
63219;DHT22;49320;52.512;13.448;2023-08-31T08:18:38;19.80;71.20
63219;DHT22;49320;52.512;13.448;2023-08-31T08:21:05;19.80;70.90
63219;DHT22;49320;52.512;13.448;2023-08-31T08:23:32;19.80;70.80
63219;DHT22;49320;52.512;13.448;2023-08-31T08:25:59;19.90;70.50
63219;DHT22;49320;52.512;13.448;2023-08-31T08:28:26;19.90;70.70
63219;DHT22;49320;52.512;13.448;2023-08-31T08:30:54;20.00;69.60
63219;DHT22;49320;52.512;13.448;2023-08-31T08:33:20;19.90;69.60
63219;DHT22;49320;52.512;13.448;2023-08-31T08:35:47;20.10;69.60
63219;DHT22;49320;52.512;13.448;2023-08-31T08:38:14;20.10;69.30
63219;DHT22;49320;52.512;13.448;2023-08-31T08:40:41;20.20;69.10
63219;DHT22;49320;52.512;13.448;2023-08-31T08:43:08;20.20;69.10
63219;DHT22;49320;52.512;13.448;2023-08-31T08:45:39;20.30;69.00
63219;DHT22;49320;52.512;13.448;2023-08-31T08:48:08;20.40;68.60
63219;DHT22;49320;52.512;13.448;2023-08-31T08:50:36;20.40;68.40
63219;DHT22;49320;52.512;13.448;2023-08-31T08:53:04;20.40;68.10
63219;DHT22;49320;52.512;13.448;2023-08-31T08:55:32;20.50;66.80
63219;DHT22;49320;52.512;13.448;2023-08-31T08:57:59;20.50;67.30
63219;DHT22;49320;52.512;13.448;2023-08-31T09:00:27;20.60;66.90
63219;DHT22;49320;52.512;13.448;2023-08-31T09:02:54;20.60;66.40
63219;DHT22;49320;52.512;13.448;2023-08-31T09:05:22;20.60;65.10
63219;DHT22;49320;52.512;13.448;2023-08-31T09:08:09;20.60;65.80
63219;DHT22;49320;52.512;13.448;2023-08-31T09:10:43;20.60;64.60
63219;DHT22;49320;52.512;13.448;2023-08-31T09:13:14;20.50;65.30
63219;DHT22;49320;52.512;13.448;2023-08-31T09:15:46;20.60;65.40
63219;DHT22;49320;52.512;13.448;2023-08-31T09:18:28;20.60;65.50
63219;DHT22;49320;52.512;13.448;2023-08-31T09:20:59;20.60;64.80
63219;DHT22;49320;52.512;13.448;2023-08-31T09:23:27;20.50;64.90
63219;DHT22;49320;52.512;13.448;2023-08-31T09:25:55;20.50;64.50
63219;DHT22;49320;52.512;13.448;2023-08-31T09:28:25;20.50;64.50
63219;DHT22;49320;52.512;13.448;2023-08-31T09:31:05;20.50;65.00
63219;DHT22;49320;52.512;13.448;2023-08-31T09:33:34;20.50;64.20
63219;DHT22;49320;52.512;13.448;2023-08-31T09:36:07;20.50;64.30
63219;DHT22;49320;52.512;13.448;2023-08-31T09:38:42;20.60;64.40
63219;DHT22;49320;52.512;13.448;2023-08-31T09:41:12;20.70;64.10
63219;DHT22;49320;52.512;13.448;2023-08-31T09:43:39;20.80;64.30
63219;DHT22;49320;52.512;13.448;2023-08-31T09:46:08;20.90;64.10
63219;DHT22;49320;52.512;13.448;2023-08-31T09:48:40;21.00;64.00
63219;DHT22;49320;52.512;13.448;2023-08-31T09:51:14;21.00;63.60
63219;DHT22;49320;52.512;13.448;2023-08-31T09:53:47;21.10;62.80
63219;DHT22;49320;52.512;13.448;2023-08-31T09:56:20;21.20;61.80
63219;DHT22;49320;52.512;13.448;2023-08-31T09:58:48;21.20;62.80
63219;DHT22;49320;52.512;13.448;2023-08-31T10:01:16;21.20;63.20
63219;DHT22;49320;52.512;13.448;2023-08-31T10:03:56;21.30;63.10
63219;DHT22;49320;52.512;13.448;2023-08-31T10:06:23;21.30;62.20
63219;DHT22;49320;52.512;13.448;2023-08-31T10:08:51;21.40;62.10
63219;DHT22;49320;52.512;13.448;2023-08-31T10:11:18;21.40;62.00
63219;DHT22;49320;52.512;13.448;2023-08-31T10:13:47;21.50;61.60
63219;DHT22;49320;52.512;13.448;2023-08-31T10:16:15;21.60;61.20
63219;DHT22;49320;52.512;13.448;2023-08-31T10:18:45;21.60;61.00
63219;DHT22;49320;52.512;13.448;2023-08-31T10:21:16;21.70;60.70
63219;DHT22;49320;52.512;13.448;2023-08-31T10:23:47;21.80;60.10
63219;DHT22;49320;52.512;13.448;2023-08-31T10:26:27;22.00;59.80
63219;DHT22;49320;52.512;13.448;2023-08-31T10:28:55;22.10;59.20
63219;DHT22;49320;52.512;13.448;2023-08-31T10:31:24;22.20;59.60
63219;DHT22;49320;52.512;13.448;2023-08-31T10:33:59;22.30;59.30
63219;DHT22;49320;52.512;13.448;2023-08-31T10:36:37;22.40;58.60
63219;DHT22;49320;52.512;13.448;2023-08-31T10:39:12;22.50;58.30
63219;DHT22;49320;52.512;13.448;2023-08-31T10:41:52;22.50;58.00
63219;DHT22;49320;52.512;13.448;2023-08-31T10:46:49;22.50;57.60
63219;DHT22;49320;52.512;13.448;2023-08-31T10:49:18;22.50;58.30
63219;DHT22;49320;52.512;13.448;2023-08-31T10:54:31;22.20;58.70
63219;DHT22;49320;52.512;13.448;2023-08-31T10:57:03;22.00;58.70
63219;DHT22;49320;52.512;13.448;2023-08-31T10:59:45;21.80;59.60
63219;DHT22;49320;52.512;13.448;2023-08-31T11:02:29;21.70;60.70
63219;DHT22;49320;52.512;13.448;2023-08-31T11:05:08;21.50;61.50
63219;DHT22;49320;52.512;13.448;2023-08-31T11:07:40;21.40;61.40
63219;DHT22;49320;52.512;13.448;2023-08-31T11:10:19;21.20;61.80
63219;DHT22;49320;52.512;13.448;2023-08-31T11:12:48;21.10;62.10
63219;DHT22;49320;52.512;13.448;2023-08-31T11:15:18;21.80;63.00
63219;DHT22;49320;52.512;13.448;2023-08-31T11:17:49;21.00;62.90
63219;DHT22;49320;52.512;13.448;2023-08-31T11:20:19;21.00;63.30
63219;DHT22;49320;52.512;13.448;2023-08-31T11:22:48;21.00;63.50
63219;DHT22;49320;52.512;13.448;2023-08-31T11:25:17;20.90;63.70
63219;DHT22;49320;52.512;13.448;2023-08-31T11:27:59;21.00;64.00
63219;DHT22;49320;52.512;13.448;2023-08-31T11:30:34;21.00;64.70
63219;DHT22;49320;52.512;13.448;2023-08-31T11:33:07;21.10;64.30
63219;DHT22;49320;52.512;13.448;2023-08-31T11:35:37;21.20;64.50
63219;DHT22;49320;52.512;13.448;2023-08-31T11:38:07;21.30;64.60
63219;DHT22;49320;52.512;13.448;2023-08-31T11:40:35;21.40;64.20
63219;DHT22;49320;52.512;13.448;2023-08-31T11:43:04;21.50;64.10
63219;DHT22;49320;52.512;13.448;2023-08-31T11:45:32;21.60;64.20
63219;DHT22;49320;52.512;13.448;2023-08-31T11:47:59;21.70;63.20
63219;DHT22;49320;52.512;13.448;2023-08-31T11:50:27;21.80;62.30
63219;DHT22;49320;52.512;13.448;2023-08-31T11:52:54;21.90;62.00
63219;DHT22;49320;52.512;13.448;2023-08-31T11:55:22;21.90;60.90
63219;DHT22;49320;52.512;13.448;2023-08-31T11:57:50;21.90;61.70
63219;DHT22;49320;52.512;13.448;2023-08-31T12:00:21;22.10;60.30
63219;DHT22;49320;52.512;13.448;2023-08-31T12:02:58;22.10;61.40
63219;DHT22;49320;52.512;13.448;2023-08-31T12:05:27;22.10;60.80
63219;DHT22;49320;52.512;13.448;2023-08-31T12:07:55;22.20;61.30
63219;DHT22;49320;52.512;13.448;2023-08-31T12:10:26;22.20;61.20
63219;DHT22;49320;52.512;13.448;2023-08-31T12:12:54;22.10;60.50
63219;DHT22;49320;52.512;13.448;2023-08-31T12:15:22;22.00;61.30
63219;DHT22;49320;52.512;13.448;2023-08-31T12:17:50;21.90;61.80
63219;DHT22;49320;52.512;13.448;2023-08-31T12:20:25;21.80;62.10
63219;DHT22;49320;52.512;13.448;2023-08-31T12:22:53;21.70;62.90
63219;DHT22;49320;52.512;13.448;2023-08-31T12:25:21;21.60;63.20
63219;DHT22;49320;52.512;13.448;2023-08-31T12:27:48;21.50;63.30
63219;DHT22;49320;52.512;13.448;2023-08-31T12:30:16;21.60;63.20
63219;DHT22;49320;52.512;13.448;2023-08-31T12:32:43;21.60;63.90
63219;DHT22;49320;52.512;13.448;2023-08-31T12:35:10;21.70;64.30
63219;DHT22;49320;52.512;13.448;2023-08-31T12:37:38;21.70;64.20
63219;DHT22;49320;52.512;13.448;2023-08-31T12:40:06;21.80;63.00
63219;DHT22;49320;52.512;13.448;2023-08-31T12:42:33;21.80;63.60
63219;DHT22;49320;52.512;13.448;2023-08-31T12:45:00;21.90;63.40
63219;DHT22;49320;52.512;13.448;2023-08-31T12:47:27;21.90;63.20
63219;DHT22;49320;52.512;13.448;2023-08-31T12:49:54;22.00;63.40
63219;DHT22;49320;52.512;13.448;2023-08-31T12:52:21;21.90;63.20
63219;DHT22;49320;52.512;13.448;2023-08-31T12:54:48;21.80;63.30
63219;DHT22;49320;52.512;13.448;2023-08-31T12:57:15;21.80;63.10
63219;DHT22;49320;52.512;13.448;2023-08-31T12:59:41;21.70;63.10
63219;DHT22;49320;52.512;13.448;2023-08-31T13:02:11;21.60;63.30
63219;DHT22;49320;52.512;13.448;2023-08-31T13:04:38;21.70;63.80
63219;DHT22;49320;52.512;13.448;2023-08-31T13:07:07;21.60;64.40
63219;DHT22;49320;52.512;13.448;2023-08-31T13:09:34;21.70;64.30
63219;DHT22;49320;52.512;13.448;2023-08-31T13:12:01;21.70;63.30
63219;DHT22;49320;52.512;13.448;2023-08-31T13:14:27;21.70;62.90
63219;DHT22;49320;52.512;13.448;2023-08-31T13:16:54;21.70;62.40
63219;DHT22;49320;52.512;13.448;2023-08-31T13:19:22;21.80;62.30
63219;DHT22;49320;52.512;13.448;2023-08-31T13:21:49;21.70;62.10
63219;DHT22;49320;52.512;13.448;2023-08-31T13:24:16;21.80;62.00
63219;DHT22;49320;52.512;13.448;2023-08-31T13:26:43;21.80;61.70
63219;DHT22;49320;52.512;13.448;2023-08-31T13:29:14;21.80;61.60
63219;DHT22;49320;52.512;13.448;2023-08-31T13:31:42;21.90;61.60
63219;DHT22;49320;52.512;13.448;2023-08-31T13:34:08;21.90;60.30
63219;DHT22;49320;52.512;13.448;2023-08-31T13:36:36;21.90;61.00
63219;DHT22;49320;52.512;13.448;2023-08-31T13:39:03;22.00;60.90
63219;DHT22;49320;52.512;13.448;2023-08-31T13:41:30;22.00;60.90
63219;DHT22;49320;52.512;13.448;2023-08-31T13:43:57;22.00;60.70
63219;DHT22;49320;52.512;13.448;2023-08-31T13:46:24;21.90;60.60
63219;DHT22;49320;52.512;13.448;2023-08-31T13:48:51;21.90;60.40
63219;DHT22;49320;52.512;13.448;2023-08-31T13:51:17;21.90;60.30
63219;DHT22;49320;52.512;13.448;2023-08-31T13:53:45;21.80;60.00
63219;DHT22;49320;52.512;13.448;2023-08-31T13:56:13;21.80;59.40
63219;DHT22;49320;52.512;13.448;2023-08-31T13:58:39;21.70;60.40
63219;DHT22;49320;52.512;13.448;2023-08-31T14:01:07;21.70;60.40
63219;DHT22;49320;52.512;13.448;2023-08-31T14:03:34;21.60;60.00
63219;DHT22;49320;52.512;13.448;2023-08-31T14:06:01;21.60;59.70
63219;DHT22;49320;52.512;13.448;2023-08-31T14:08:31;21.50;59.70
63219;DHT22;49320;52.512;13.448;2023-08-31T14:10:58;21.50;59.60
63219;DHT22;49320;52.512;13.448;2023-08-31T14:13:25;21.40;59.60
63219;DHT22;49320;52.512;13.448;2023-08-31T14:15:52;21.30;59.40
63219;DHT22;49320;52.512;13.448;2023-08-31T14:18:19;21.30;59.80
63219;DHT22;49320;52.512;13.448;2023-08-31T14:20:46;21.30;59.80
63219;DHT22;49320;52.512;13.448;2023-08-31T14:23:12;21.30;60.10
63219;DHT22;49320;52.512;13.448;2023-08-31T14:25:39;21.30;60.10
63219;DHT22;49320;52.512;13.448;2023-08-31T14:28:06;21.40;60.00
63219;DHT22;49320;52.512;13.448;2023-08-31T14:30:35;21.50;60.00
63219;DHT22;49320;52.512;13.448;2023-08-31T14:33:04;21.60;59.90
63219;DHT22;49320;52.512;13.448;2023-08-31T14:35:31;21.60;59.70
63219;DHT22;49320;52.512;13.448;2023-08-31T14:38:02;21.70;60.30
63219;DHT22;49320;52.512;13.448;2023-08-31T14:40:29;21.70;59.40
63219;DHT22;49320;52.512;13.448;2023-08-31T14:42:56;21.70;59.20
63219;DHT22;49320;52.512;13.448;2023-08-31T14:45:26;21.70;58.80
63219;DHT22;49320;52.512;13.448;2023-08-31T14:47:52;21.70;58.60
63219;DHT22;49320;52.512;13.448;2023-08-31T14:50:19;21.70;58.60
63219;DHT22;49320;52.512;13.448;2023-08-31T14:52:48;21.70;58.20
63219;DHT22;49320;52.512;13.448;2023-08-31T14:55:15;21.70;56.50
63219;DHT22;49320;52.512;13.448;2023-08-31T14:57:42;21.60;57.60
63219;DHT22;49320;52.512;13.448;2023-08-31T15:00:09;21.60;57.50
63219;DHT22;49320;52.512;13.448;2023-08-31T15:02:37;21.60;56.90
63219;DHT22;49320;52.512;13.448;2023-08-31T15:05:04;21.50;56.60
63219;DHT22;49320;52.512;13.448;2023-08-31T15:07:31;21.50;56.40
63219;DHT22;49320;52.512;13.448;2023-08-31T15:09:58;21.40;56.20
63219;DHT22;49320;52.512;13.448;2023-08-31T15:12:26;21.30;56.50
63219;DHT22;49320;52.512;13.448;2023-08-31T15:14:54;21.20;56.60
63219;DHT22;49320;52.512;13.448;2023-08-31T15:17:21;21.10;56.90
63219;DHT22;49320;52.512;13.448;2023-08-31T15:19:51;21.00;56.90
63219;DHT22;49320;52.512;13.448;2023-08-31T15:22:18;20.90;57.00
63219;DHT22;49320;52.512;13.448;2023-08-31T15:24:46;20.80;57.10
63219;DHT22;49320;52.512;13.448;2023-08-31T15:27:13;20.70;57.30
63219;DHT22;49320;52.512;13.448;2023-08-31T15:29:40;20.80;57.50
63219;DHT22;49320;52.512;13.448;2023-08-31T15:32:06;20.70;57.60
63219;DHT22;49320;52.512;13.448;2023-08-31T15:34:34;20.70;57.70
63219;DHT22;49320;52.512;13.448;2023-08-31T15:37:01;20.80;57.60
63219;DHT22;49320;52.512;13.448;2023-08-31T15:39:29;20.70;57.00
63219;DHT22;49320;52.512;13.448;2023-08-31T15:41:57;20.80;56.80
63219;DHT22;49320;52.512;13.448;2023-08-31T15:44:24;20.70;57.10
63219;DHT22;49320;52.512;13.448;2023-08-31T15:46:51;20.60;57.40
63219;DHT22;49320;52.512;13.448;2023-08-31T15:49:18;20.60;57.40
63219;DHT22;49320;52.512;13.448;2023-08-31T15:51:45;20.30;57.00
63219;DHT22;49320;52.512;13.448;2023-08-31T15:54:11;20.60;57.40
63219;DHT22;49320;52.512;13.448;2023-08-31T15:56:38;20.60;56.50
63219;DHT22;49320;52.512;13.448;2023-08-31T15:59:05;20.60;57.40